Time;durP1;ratioP1;P1;durP2;ratioP2;P2;SDS_P1;SDS_P2;PMS_P1;PMS_P2;Temp;Humidity;BMP_temperature;BMP_pressure;BME280_temperature;BME280_humidity;BME280_pressure;Samples;Min_cycle;Max_cycle;Signal;HPM_P1;HPM_P2
2022/06/11 00:01:19;;;;;;;16.20;13.35;;;17.90;99.90;;;;;;5106466;28;20043;-65
2022/06/11 00:03:46;;;;;;;19.08;12.75;;;17.90;99.90;;;;;;5105971;28;20043;-65
2022/06/11 00:06:12;;;;;;;15.60;12.48;;;17.90;99.90;;;;;;5124405;28;20052;-65
2022/06/11 00:08:38;;;;;;;19.40;12.98;;;17.90;99.90;;;;;;5122758;28;20478;-65
2022/06/11 00:11:06;;;;;;;14.23;11.93;;;17.80;99.90;;;;;;5124515;28;20073;-65
2022/06/11 00:13:32;;;;;;;14.75;11.85;;;17.80;99.90;;;;;;5107100;28;20051;-65
2022/06/11 00:15:58;;;;;;;17.95;13.18;;;17.70;99.90;;;;;;5125176;28;20091;-65
2022/06/11 00:18:25;;;;;;;15.00;11.98;;;17.70;99.90;;;;;;5125547;28;20052;-65
2022/06/11 00:20:51;;;;;;;13.32;11.90;;;17.60;99.90;;;;;;5105847;28;20051;-65
2022/06/11 00:23:17;;;;;;;13.85;11.27;;;17.60;99.90;;;;;;5110931;28;20039;-65
2022/06/11 00:25:43;;;;;;;15.63;11.25;;;17.50;99.90;;;;;;5123633;28;20089;-65
2022/06/11 00:28:09;;;;;;;15.60;11.82;;;17.40;99.90;;;;;;5104684;28;20051;-65
2022/06/11 00:30:36;;;;;;;14.90;12.20;;;17.30;99.90;;;;;;5124272;28;20049;-65
2022/06/11 00:33:06;;;;;;;17.58;12.10;;;17.20;99.90;;;;;;5119997;28;20050;-65
2022/06/11 00:35:34;;;;;;;13.95;10.43;;;17.10;99.90;;;;;;5123881;28;20051;-65
2022/06/11 00:38:00;;;;;;;12.93;11.13;;;17.00;99.90;;;;;;5123808;28;20039;-65
2022/06/11 00:40:28;;;;;;;17.27;11.45;;;16.90;99.90;;;;;;5124199;28;20040;-65
2022/06/11 00:42:54;;;;;;;12.00;10.00;;;16.80;99.90;;;;;;5123798;28;20491;-65
2022/06/11 00:45:22;;;;;;;17.27;13.13;;;16.70;99.90;;;;;;5125799;28;20051;-65
2022/06/11 00:47:57;;;;;;;15.82;13.68;;;16.60;99.90;;;;;;5109825;28;20036;-65
2022/06/11 00:50:37;;;;;;;15.23;12.32;;;16.60;99.90;;;;;;5128151;28;20048;-65
2022/06/11 00:53:05;;;;;;;17.67;12.98;;;16.60;99.90;;;;;;5127903;28;20089;-65
2022/06/11 00:55:38;;;;;;;16.63;12.48;;;16.60;99.90;;;;;;5108914;28;20039;-65
2022/06/11 00:58:11;;;;;;;15.82;12.98;;;16.70;99.90;;;;;;5129224;28;20083;-65
2022/06/11 01:00:42;;;;;;;16.17;11.43;;;16.60;99.90;;;;;;5131792;27;20039;-65
2022/06/11 01:03:12;;;;;;;16.20;12.10;;;16.60;99.90;;;;;;5127459;28;20054;-65
2022/06/11 01:05:42;;;;;;;17.67;13.65;;;16.60;99.90;;;;;;5093724;28;20052;-65
2022/06/11 01:08:34;;;;;;;19.77;13.82;;;16.50;99.90;;;;;;5092660;28;20051;-65
2022/06/11 01:11:14;;;;;;;14.95;12.43;;;16.60;99.90;;;;;;5107162;28;20139;-65
2022/06/11 01:14:20;;;;;;;17.02;11.98;;;16.50;99.90;;;;;;5108861;28;20050;-65
2022/06/11 01:17:11;;;;;;;16.35;11.80;;;16.40;99.90;;;;;;5127535;28;20096;-65
2022/06/11 01:20:07;;;;;;;13.43;11.90;;;16.20;99.90;;;;;;5110089;28;20483;-65
2022/06/11 01:23:03;;;;;;;20.55;12.43;;;16.30;99.90;;;;;;5126281;28;20107;-65
2022/06/11 01:25:47;;;;;;;13.57;11.93;;;16.30;99.90;;;;;;5108632;28;20552;-65
2022/06/11 01:28:22;;;;;;;12.40;10.88;;;16.20;99.90;;;;;;5124313;28;20042;-65
2022/06/11 01:30:56;;;;;;;20.25;12.50;;;16.10;99.90;;;;;;5127203;28;20058;-65
2022/06/11 01:33:31;;;;;;;16.85;12.82;;;16.10;99.90;;;;;;5127065;28;20043;-65
2022/06/11 01:36:08;;;;;;;18.83;12.10;;;16.10;99.90;;;;;;5127826;28;20047;-65
2022/06/11 01:38:42;;;;;;;15.30;11.57;;;16.30;99.90;;;;;;5112184;27;20042;-65
2022/06/11 01:41:35;;;;;;;20.50;13.38;;;16.30;99.90;;;;;;5109547;28;20043;-65
2022/06/11 01:44:26;;;;;;;16.05;12.80;;;16.30;99.90;;;;;;5125515;28;20043;-65
2022/06/11 01:46:55;;;;;;;14.10;11.20;;;16.40;99.90;;;;;;5100082;28;20051;-65
2022/06/11 01:49:21;;;;;;;16.40;12.50;;;16.30;99.90;;;;;;5108181;28;20047;-65
2022/06/11 01:52:07;;;;;;;17.13;12.98;;;16.20;99.90;;;;;;5108903;28;20094;-65
2022/06/11 01:54:54;;;;;;;16.58;12.48;;;16.20;99.90;;;;;;5108709;28;20039;-65
2022/06/11 01:57:32;;;;;;;17.20;11.95;;;16.10;99.90;;;;;;5127496;28;20546;-65
2022/06/11 02:00:05;;;;;;;16.23;12.48;;;16.10;99.90;;;;;;5109421;28;20074;-65
2022/06/11 02:02:54;;;;;;;19.10;11.52;;;16.10;99.90;;;;;;5107933;28;20476;-65
2022/06/11 02:05:24;;;;;;;15.25;12.32;;;16.00;99.90;;;;;;5127646;28;20039;-65
2022/06/11 02:08:18;;;;;;;16.63;12.23;;;16.00;99.90;;;;;;5109743;28;20051;-65
2022/06/11 02:11:18;;;;;;;16.35;12.18;;;16.00;99.90;;;;;;5125085;28;20094;-65
2022/06/11 02:14:15;;;;;;;16.73;12.43;;;15.90;99.90;;;;;;5089799;28;20044;-65
2022/06/11 02:17:02;;;;;;;16.73;11.68;;;16.00;99.90;;;;;;5125831;27;20149;-65
2022/06/11 02:19:56;;;;;;;16.30;11.52;;;16.00;99.90;;;;;;5108680;28;20062;-65
2022/06/11 02:22:32;;;;;;;15.85;11.80;;;16.00;99.90;;;;;;5103236;28;20054;-65
2022/06/11 02:25:19;;;;;;;15.93;11.85;;;15.90;99.90;;;;;;5126322;28;20052;-65
2022/06/11 02:27:47;;;;;;;14.63;11.50;;;15.90;99.90;;;;;;5105395;28;20509;-65
2022/06/11 02:30:18;;;;;;;15.13;11.38;;;15.90;99.90;;;;;;5126104;28;20407;-65
2022/06/11 02:32:44;;;;;;;16.08;12.55;;;16.00;99.90;;;;;;5126331;28;20067;-65
2022/06/11 02:35:14;;;;;;;15.32;12.50;;;15.90;99.90;;;;;;5127461;28;20073;-65
2022/06/11 02:37:41;;;;;;;;;;;15.90;99.90;;;;;;5126138;28;20047;-65
2022/06/11 02:40:15;;;;;;;14.93;10.90;;;15.90;99.90;;;;;;5126343;28;19923;-65
2022/06/11 02:42:42;;;;;;;15.93;11.27;;;15.90;99.90;;;;;;5126043;28;20051;-65
2022/06/11 02:45:10;;;;;;;14.75;10.73;;;16.00;99.90;;;;;;5125591;28;20106;-65
2022/06/11 02:47:37;;;;;;;15.00;11.73;;;15.90;99.90;;;;;;5125667;28;20134;-65
2022/06/11 02:50:03;;;;;;;13.85;10.27;;;16.00;99.90;;;;;;5125962;28;20062;-65
2022/06/11 02:52:30;;;;;;;14.20;10.85;;;15.90;99.90;;;;;;5126413;28;20124;-65
2022/06/11 02:54:56;;;;;;;16.00;10.98;;;16.10;99.90;;;;;;5125504;27;20106;-65
2022/06/11 02:57:25;;;;;;;16.67;9.95;;;16.00;99.90;;;;;;5125992;28;20039;-65
2022/06/11 02:59:52;;;;;;;18.60;11.17;;;16.00;99.90;;;;;;5124642;28;20039;-65
2022/06/11 03:02:19;;;;;;;14.45;9.32;;;16.00;99.90;;;;;;5107072;28;20051;-65
2022/06/11 03:04:45;;;;;;;11.15;8.88;;;16.00;99.90;;;;;;5125240;28;20043;-65
2022/06/11 03:07:11;;;;;;;13.40;9.10;;;16.00;99.90;;;;;;5106125;28;20122;-65
2022/06/11 03:09:39;;;;;;;14.65;10.52;;;15.90;99.90;;;;;;5125633;28;20036;-65
2022/06/11 03:12:06;;;;;;;14.25;9.68;;;16.00;99.90;;;;;;5125339;28;20040;-65
2022/06/11 03:14:32;;;;;;;16.40;10.18;;;15.90;99.90;;;;;;5106710;28;20047;-65
2022/06/11 03:16:58;;;;;;;14.43;10.15;;;15.90;99.90;;;;;;5106440;28;20088;-65
2022/06/11 03:19:24;;;;;;;14.63;9.38;;;15.80;99.90;;;;;;5125576;28;20043;-65
2022/06/11 03:21:54;;;;;;;14.32;9.45;;;15.90;99.90;;;;;;5124891;28;20034;-65
2022/06/11 03:24:20;;;;;;;11.48;9.05;;;15.80;99.90;;;;;;5124916;28;20169;-65
2022/06/11 03:26:47;;;;;;;13.55;9.60;;;15.70;99.90;;;;;;5124686;28;20051;-65
2022/06/11 03:29:15;;;;;;;14.55;8.95;;;15.70;99.90;;;;;;5104160;28;20103;-65
2022/06/11 03:31:43;;;;;;;13.30;9.30;;;15.70;99.90;;;;;;5106119;28;20059;-65
2022/06/11 03:34:09;;;;;;;13.80;9.43;;;15.70;99.90;;;;;;5121844;28;20113;-65
2022/06/11 03:36:35;;;;;;;16.98;9.65;;;15.80;99.90;;;;;;5106492;28;20039;-65
2022/06/11 03:39:03;;;;;;;15.63;9.77;;;15.70;99.90;;;;;;5124293;28;20047;-65
2022/06/11 03:41:28;;;;;;;16.45;10.15;;;15.70;99.90;;;;;;5107520;28;20059;-65
2022/06/11 03:43:54;;;;;;;15.35;10.82;;;15.80;99.90;;;;;;5090111;28;20043;-65
2022/06/11 03:46:20;;;;;;;14.77;9.80;;;15.70;99.90;;;;;;5125996;28;20039;-65
2022/06/11 03:48:47;;;;;;;17.27;11.15;;;15.70;99.90;;;;;;5106797;28;20554;-65
2022/06/11 03:51:13;;;;;;;17.95;11.13;;;15.80;99.90;;;;;;5124553;28;20043;-65
2022/06/11 03:53:40;;;;;;;16.05;11.15;;;15.70;99.90;;;;;;5106048;28;20043;-65
2022/06/11 03:56:08;;;;;;;16.65;11.02;;;15.70;99.90;;;;;;5124686;28;20061;-65
2022/06/11 03:58:35;;;;;;;15.40;11.18;;;15.60;99.90;;;;;;5122664;28;20089;-65
2022/06/11 04:01:17;;;;;;;18.20;11.18;;;15.60;99.90;;;;;;5125216;28;20048;-65
2022/06/11 04:03:55;;;;;;;17.10;11.27;;;15.70;99.90;;;;;;5124330;28;20100;-65
2022/06/11 04:06:29;;;;;;;19.07;11.40;;;15.70;99.90;;;;;;5105837;28;20036;-65
2022/06/11 04:08:54;;;;;;;16.17;11.68;;;15.60;99.90;;;;;;5124302;28;20044;-65
2022/06/11 04:11:21;;;;;;;17.45;11.80;;;15.60;99.90;;;;;;5106514;28;20085;-65
2022/06/11 04:13:49;;;;;;;17.10;12.23;;;15.40;99.90;;;;;;5107106;28;20036;-65
2022/06/11 04:16:40;;;;;;;15.48;10.50;;;15.40;99.90;;;;;;5122084;28;20047;-65
2022/06/11 04:19:11;;;;;;;15.90;11.20;;;15.40;99.90;;;;;;5129544;27;20043;-65
2022/06/11 04:21:37;;;;;;;13.75;11.00;;;15.30;99.90;;;;;;5124805;28;20039;-65
2022/06/11 04:24:06;;;;;;;14.73;10.80;;;15.50;99.90;;;;;;5104551;28;20040;-65
2022/06/11 04:26:37;;;;;;;17.73;10.98;;;15.40;99.90;;;;;;5124295;28;20077;-65
2022/06/11 04:29:05;;;;;;;18.67;9.95;;;15.40;99.90;;;;;;5117498;28;20058;-65
2022/06/11 04:31:31;;;;;;;17.88;9.20;;;15.40;99.90;;;;;;5106362;28;20058;-65
2022/06/11 04:33:57;;;;;;;14.05;9.60;;;15.20;99.90;;;;;;5119753;28;20130;-65
2022/06/11 04:36:26;;;;;;;15.30;9.00;;;15.40;99.90;;;;;;5122540;28;20044;-65
2022/06/11 04:38:52;;;;;;;17.48;9.15;;;15.30;99.90;;;;;;5091931;28;20046;-65
2022/06/11 04:41:18;;;;;;;17.88;8.65;;;15.40;99.90;;;;;;5125110;28;20099;-65
2022/06/11 04:43:44;;;;;;;13.35;8.52;;;15.40;99.90;;;;;;5121576;28;20036;-65
2022/06/11 04:46:10;;;;;;;18.35;7.70;;;15.40;99.90;;;;;;5121772;28;20104;-65
2022/06/11 04:48:37;;;;;;;16.70;7.30;;;15.40;99.90;;;;;;5105069;28;20048;-65
2022/06/11 04:51:03;;;;;;;15.10;6.72;;;15.40;99.90;;;;;;5124670;28;20067;-65
2022/06/11 04:53:29;;;;;;;12.35;6.03;;;15.60;99.90;;;;;;5102655;28;20051;-65
2022/06/11 04:55:55;;;;;;;16.60;5.97;;;15.50;99.90;;;;;;5125068;28;20036;-65
2022/06/11 04:58:21;;;;;;;20.63;6.43;;;15.50;99.90;;;;;;5106161;28;20545;-65
2022/06/11 05:00:47;;;;;;;19.58;5.38;;;15.60;99.90;;;;;;5121898;28;20040;-65
2022/06/11 05:03:12;;;;;;;14.88;5.35;;;15.50;99.90;;;;;;5104895;28;20071;-65
2022/06/11 05:05:38;;;;;;;15.38;5.43;;;15.50;99.90;;;;;;5107138;28;20035;-65
2022/06/11 05:08:04;;;;;;;12.70;5.00;;;15.60;99.90;;;;;;5102862;28;20067;-65
2022/06/11 05:10:34;;;;;;;15.70;5.85;;;15.60;99.90;;;;;;5124520;28;20042;-65
2022/06/11 05:13:00;;;;;;;16.40;4.68;;;15.60;99.90;;;;;;5119369;28;20047;-65
2022/06/11 05:15:26;;;;;;;14.52;4.10;;;15.70;99.90;;;;;;5103485;28;20039;-65
2022/06/11 05:17:51;;;;;;;14.45;5.00;;;15.60;99.90;;;;;;5122090;28;20074;-65
2022/06/11 05:20:19;;;;;;;15.63;4.55;;;15.70;99.90;;;;;;5106150;28;20040;-65
2022/06/11 05:22:46;;;;;;;14.32;4.28;;;15.60;99.90;;;;;;5103881;28;20131;-65
2022/06/11 05:25:14;;;;;;;12.00;4.60;;;15.60;99.90;;;;;;5104095;28;20104;-65
2022/06/11 05:27:42;;;;;;;12.82;4.50;;;15.70;99.90;;;;;;5123187;28;20054;-65
2022/06/11 05:30:15;;;;;;;17.25;5.15;;;15.80;99.90;;;;;;5088846;28;20039;-65
2022/06/11 05:32:41;;;;;;;18.20;4.80;;;15.80;99.90;;;;;;5106277;28;20055;-65
2022/06/11 05:35:11;;;;;;;11.60;4.70;;;15.80;99.90;;;;;;5118369;28;20554;-65
2022/06/11 05:37:37;;;;;;;15.80;4.78;;;15.80;99.90;;;;;;5108449;28;20055;-65
2022/06/11 05:40:05;;;;;;;15.43;4.38;;;15.80;99.90;;;;;;5090941;28;20043;-65
2022/06/11 05:42:31;;;;;;;14.35;4.57;;;15.90;99.90;;;;;;5128166;28;20054;-65
2022/06/11 05:44:57;;;;;;;16.20;3.92;;;16.00;99.90;;;;;;5109408;28;20075;-65
2022/06/11 05:47:26;;;;;;;19.45;5.28;;;15.90;99.90;;;;;;5108597;28;20059;-65
2022/06/11 05:49:56;;;;;;;17.60;5.50;;;16.00;99.90;;;;;;5128020;28;20040;-65
2022/06/11 05:52:27;;;;;;;14.85;4.10;;;16.00;99.90;;;;;;5090481;28;20046;-65
2022/06/11 05:54:54;;;;;;;22.65;5.00;;;16.00;99.90;;;;;;5124446;28;20040;-65
2022/06/11 05:57:23;;;;;;;13.85;4.47;;;16.00;99.90;;;;;;5127680;28;20067;-66
2022/06/11 05:59:53;;;;;;;21.88;5.57;;;16.00;99.90;;;;;;5102868;28;20051;-65
2022/06/11 06:02:21;;;;;;;17.27;4.38;;;16.00;99.90;;;;;;5126457;28;20043;-64
2022/06/11 06:04:47;;;;;;;26.20;5.72;;;16.10;99.90;;;;;;5108295;28;20043;-65
2022/06/11 06:07:12;;;;;;;15.77;4.32;;;16.00;99.90;;;;;;5107755;28;20040;-64
2022/06/11 06:09:38;;;;;;;20.83;5.47;;;16.10;99.90;;;;;;5126132;28;20066;-65
2022/06/11 06:12:05;;;;;;;21.48;5.13;;;16.10;99.90;;;;;;5126828;27;20547;-66
2022/06/11 06:14:31;;;;;;;16.45;4.82;;;16.10;99.90;;;;;;5126163;27;20044;-65
2022/06/11 06:16:57;;;;;;;18.80;5.07;;;16.10;99.90;;;;;;5107205;28;20095;-65
2022/06/11 06:19:22;;;;;;;13.13;5.10;;;16.20;99.90;;;;;;5107348;28;20051;-66
2022/06/11 06:21:49;;;;;;;16.25;4.85;;;16.20;99.90;;;;;;5107799;28;20035;-66
2022/06/11 06:24:14;;;;;;;16.58;6.25;;;16.30;99.90;;;;;;5125889;28;20051;-66
2022/06/11 06:26:40;;;;;;;22.08;6.05;;;16.30;99.90;;;;;;5107139;28;20036;-66
2022/06/11 06:29:06;;;;;;;21.23;5.35;;;16.40;99.90;;;;;;5124059;28;20043;-65
2022/06/11 06:31:32;;;;;;;19.50;5.93;;;16.50;99.90;;;;;;5107690;28;20130;-65
2022/06/11 06:34:00;;;;;;;20.95;6.03;;;16.50;99.90;;;;;;5127036;28;20079;-65
2022/06/11 06:36:27;;;;;;;23.85;5.40;;;16.50;99.90;;;;;;5108091;28;20119;-65
2022/06/11 06:38:54;;;;;;;25.42;5.43;;;16.60;99.90;;;;;;5108162;28;20050;-65
2022/06/11 06:41:20;;;;;;;17.42;4.60;;;16.60;99.90;;;;;;5107080;28;20436;-65
2022/06/11 06:43:48;;;;;;;20.30;5.85;;;16.60;99.90;;;;;;5125033;28;20039;-65
2022/06/11 06:46:15;;;;;;;17.48;5.75;;;16.70;99.90;;;;;;5108865;28;20047;-65
2022/06/11 06:48:42;;;;;;;20.38;5.32;;;16.70;99.90;;;;;;5113277;28;20035;-65
2022/06/11 06:51:08;;;;;;;19.08;5.32;;;16.60;99.90;;;;;;5127470;27;20102;-66
2022/06/11 06:53:36;;;;;;;21.83;5.10;;;16.70;99.90;;;;;;5106923;28;20487;-65
2022/06/11 06:56:02;;;;;;;23.65;5.63;;;16.70;99.90;;;;;;5125620;28;20082;-65
2022/06/11 06:58:28;;;;;;;22.67;6.38;;;16.90;99.90;;;;;;5107290;28;20099;-65
2022/06/11 07:00:55;;;;;;;16.85;5.18;;;16.70;99.90;;;;;;5125792;28;20055;-65
2022/06/11 07:03:21;;;;;;;16.42;5.20;;;16.80;99.90;;;;;;5107414;28;20035;-65
2022/06/11 07:05:48;;;;;;;22.42;5.40;;;16.80;99.90;;;;;;5106968;28;20051;-66
2022/06/11 07:08:16;;;;;;;22.75;5.57;;;17.00;99.90;;;;;;5107104;28;20040;-65
2022/06/11 07:10:53;;;;;;;22.05;5.93;;;17.00;99.90;;;;;;5125258;28;20048;-66
2022/06/11 07:13:20;;;;;;;24.05;6.05;;;17.00;99.90;;;;;;5107659;28;20051;-65
2022/06/11 07:15:50;;;;;;;21.73;5.65;;;17.10;99.90;;;;;;5106901;28;20047;-65
2022/06/11 07:18:18;;;;;;;;;;;17.10;99.90;;;;;;5108409;28;20153;-65
2022/06/11 07:20:46;;;;;;;20.45;4.80;;;17.10;99.90;;;;;;5107354;28;19920;-65
2022/06/11 07:23:33;;;;;;;22.05;5.95;;;17.20;99.90;;;;;;5107392;28;20051;-65
2022/06/11 07:25:59;;;;;;;21.88;5.43;;;17.20;99.90;;;;;;5107370;28;20118;-65
2022/06/11 07:28:35;;;;;;;15.40;5.10;;;17.30;99.90;;;;;;5101349;28;20059;-66
2022/06/11 07:31:01;;;;;;;18.02;5.22;;;17.30;99.90;;;;;;5125504;28;20043;-66
2022/06/11 07:33:27;;;;;;;26.17;5.00;;;17.20;99.90;;;;;;5126043;28;20062;-65
2022/06/11 07:35:54;;;;;;;21.35;5.22;;;17.20;99.90;;;;;;5125515;28;20038;-66
2022/06/11 07:38:22;;;;;;;18.10;5.10;;;17.30;99.90;;;;;;5106334;28;20074;-65
2022/06/11 07:40:48;;;;;;;19.38;5.85;;;17.30;99.90;;;;;;5106146;28;20364;-66
2022/06/11 07:43:14;;;;;;;21.70;5.65;;;17.40;99.90;;;;;;5106624;28;20047;-65
2022/06/11 07:45:42;;;;;;;26.38;5.90;;;17.20;99.90;;;;;;5107728;28;20487;-66
2022/06/11 07:48:09;;;;;;;25.58;7.10;;;17.40;99.90;;;;;;5125143;28;20109;-66
2022/06/11 07:50:38;;;;;;;18.35;5.13;;;17.50;99.90;;;;;;5105630;28;20043;-66
2022/06/11 07:53:05;;;;;;;19.85;5.15;;;17.60;99.90;;;;;;5114103;28;20043;-66
2022/06/11 07:55:32;;;;;;;22.65;5.40;;;17.80;99.90;;;;;;5107550;28;20048;-65
2022/06/11 07:57:59;;;;;;;27.77;7.30;;;17.80;99.90;;;;;;5124940;28;20050;-65
2022/06/11 08:00:30;;;;;;;19.95;5.47;;;17.90;99.90;;;;;;5107136;28;20039;-66
2022/06/11 08:02:56;;;;;;;22.17;5.90;;;18.00;99.90;;;;;;5107076;28;20119;-65
2022/06/11 08:05:22;;;;;;;19.48;5.85;;;18.10;99.90;;;;;;5124325;28;20039;-65
2022/06/11 08:07:51;;;;;;;22.38;6.05;;;18.10;99.90;;;;;;5104107;28;20072;-65
2022/06/11 08:10:18;;;;;;;22.57;5.17;;;18.10;99.90;;;;;;5106224;28;20039;-65
2022/06/11 08:12:44;;;;;;;25.35;6.43;;;18.30;99.90;;;;;;5103019;28;20122;-66
2022/06/11 08:15:11;;;;;;;24.60;5.63;;;18.40;99.90;;;;;;5089289;28;20086;-66
2022/06/11 08:17:40;;;;;;;21.33;6.03;;;18.30;99.90;;;;;;5093629;28;20052;-66
2022/06/11 08:20:07;;;;;;;24.90;5.82;;;18.20;99.90;;;;;;5124563;28;20158;-65
2022/06/11 08:22:33;;;;;;;22.15;5.88;;;18.20;99.90;;;;;;5106540;28;20043;-66
2022/06/11 08:24:59;;;;;;;18.80;5.90;;;18.20;99.90;;;;;;5105856;28;20058;-66
2022/06/11 08:27:25;;;;;;;23.45;6.10;;;18.30;99.90;;;;;;5105290;28;20064;-65
2022/06/11 08:29:51;;;;;;;21.92;5.57;;;18.40;99.90;;;;;;5105633;28;20048;-65
2022/06/11 08:32:17;;;;;;;23.48;7.25;;;18.70;99.90;;;;;;5105345;28;20055;-66
2022/06/11 08:34:46;;;;;;;19.77;5.53;;;18.60;99.90;;;;;;5106203;28;20059;-66
2022/06/11 08:37:15;;;;;;;33.23;6.83;;;18.70;99.90;;;;;;5105457;28;20051;-66
2022/06/11 08:39:41;;;;;;;24.40;5.90;;;18.80;99.90;;;;;;5106248;28;20051;-66
2022/06/11 08:42:36;;;;;;;23.67;6.35;;;18.70;99.90;;;;;;5124086;28;20122;-66
2022/06/11 08:45:13;;;;;;;21.33;5.00;;;18.60;99.90;;;;;;5107374;28;20518;-66
2022/06/11 08:47:45;;;;;;;27.33;6.05;;;18.50;99.90;;;;;;5107379;28;20127;-66
2022/06/11 08:50:26;;;;;;;19.67;4.95;;;18.60;99.90;;;;;;5105434;28;20059;-66
2022/06/11 08:52:51;;;;;;;30.38;6.65;;;18.60;99.90;;;;;;5123734;28;20074;-66
2022/06/11 08:55:21;;;;;;;20.08;5.65;;;18.80;99.90;;;;;;5123974;28;20040;-66
2022/06/11 08:57:56;;;;;;;22.52;5.85;;;18.80;99.90;;;;;;5105512;28;20052;-65
2022/06/11 09:00:27;;;;;;;18.90;5.93;;;18.90;99.90;;;;;;5106577;28;20099;-66
2022/06/11 09:02:56;;;;;;;26.25;5.53;;;19.10;99.90;;;;;;5124083;28;20039;-66
2022/06/11 09:05:51;;;;;;;22.88;5.10;;;19.10;99.90;;;;;;5124450;28;20070;-66
2022/06/11 09:08:39;;;;;;;22.55;5.32;;;19.10;99.90;;;;;;5127500;28;20079;-66
2022/06/11 09:11:13;;;;;;;20.73;5.13;;;19.00;99.90;;;;;;5107441;28;20106;-66
2022/06/11 09:14:04;;;;;;;26.70;5.72;;;19.10;99.90;;;;;;5109421;28;20115;-66
2022/06/11 09:16:48;;;;;;;22.85;5.20;;;19.20;99.90;;;;;;5127917;28;20039;-65
2022/06/11 09:19:50;;;;;;;25.65;4.85;;;19.40;99.90;;;;;;5109477;28;20044;-66
2022/06/11 09:22:43;;;;;;;16.80;4.35;;;19.40;99.90;;;;;;5108938;28;20047;-65
2022/06/11 09:25:35;;;;;;;14.65;4.20;;;19.50;99.90;;;;;;5122694;28;20368;-66
2022/06/11 09:28:18;;;;;;;21.08;4.85;;;19.40;99.90;;;;;;5108631;28;20406;-66
2022/06/11 09:30:53;;;;;;;17.52;4.82;;;19.60;99.90;;;;;;5124806;28;20052;-66
2022/06/11 09:34:00;;;;;;;21.35;5.28;;;19.60;99.90;;;;;;5108682;28;20055;-66
2022/06/11 09:36:41;;;;;;;20.25;4.80;;;19.70;99.90;;;;;;5044196;28;20053;-66
2022/06/11 09:39:44;;;;;;;18.33;4.75;;;19.60;99.90;;;;;;5027560;28;20512;-66
2022/06/11 09:42:36;;;;;;;24.05;5.72;;;19.50;99.90;;;;;;5042878;28;20049;-66
2022/06/11 09:45:24;;;;;;;17.10;4.18;;;19.50;99.90;;;;;;5036441;28;20084;-66
2022/06/11 09:47:52;;;;;;;18.83;5.50;;;19.50;99.90;;;;;;5041220;28;20603;-66
2022/06/11 09:50:24;;;;;;;20.90;5.75;;;19.50;99.90;;;;;;5024424;28;20038;-66
2022/06/11 09:53:35;;;;;;;15.40;4.03;;;19.50;99.90;;;;;;5044490;28;20147;-66
2022/06/11 09:56:03;;;;;;;18.33;4.63;;;19.60;99.90;;;;;;4963736;28;20127;-65
2022/06/11 09:59:17;;;;;;;16.38;4.57;;;19.70;99.90;;;;;;4968834;28;20082;-66
2022/06/11 10:01:59;;;;;;;13.93;4.00;;;19.70;99.90;;;;;;4968594;28;20161;-65
2022/06/11 10:04:31;;;;;;;19.38;4.18;;;19.70;99.90;;;;;;4969278;28;20081;-66
2022/06/11 10:07:03;;;;;;;16.02;4.13;;;19.90;99.90;;;;;;4986137;28;20114;-66
2022/06/11 10:10:03;;;;;;;14.75;3.95;;;20.10;99.90;;;;;;4964743;28;20090;-66
2022/06/11 10:12:36;;;;;;;14.35;3.35;;;20.10;99.90;;;;;;5014179;28;20135;-66
2022/06/11 10:15:05;;;;;;;11.45;3.05;;;20.10;99.90;;;;;;5046437;28;20053;-66
2022/06/11 10:17:38;;;;;;;9.20;3.00;;;20.10;99.90;;;;;;5046167;28;20153;-66
2022/06/11 10:20:26;;;;;;;18.77;4.80;;;20.10;99.90;;;;;;5033727;28;20092;-66
2022/06/11 10:23:22;;;;;;;17.02;3.78;;;20.20;99.90;;;;;;5063087;28;20045;-65
2022/06/11 10:26:12;;;;;;;14.68;3.35;;;20.20;99.90;;;;;;5064073;28;20049;-66
2022/06/11 10:28:52;;;;;;;12.57;3.08;;;20.20;99.90;;;;;;5040385;28;20041;-66
2022/06/11 10:31:19;;;;;;;14.35;4.22;;;20.20;99.90;;;;;;5060224;28;20081;-66
2022/06/11 10:34:17;;;;;;;20.65;3.97;;;20.40;99.90;;;;;;5107664;28;20112;-66
2022/06/11 10:36:55;;;;;;;14.45;3.67;;;20.30;99.90;;;;;;5125368;28;20054;-66
2022/06/11 10:39:40;;;;;;;13.20;3.03;;;20.50;99.90;;;;;;5110595;28;20046;-66
2022/06/11 10:42:14;;;;;;;11.85;3.35;;;20.50;99.90;;;;;;5132747;27;20043;-66
2022/06/11 10:44:51;;;;;;;15.32;4.10;;;20.50;99.90;;;;;;5108239;28;20054;-65
2022/06/11 10:47:36;;;;;;;15.40;4.05;;;20.50;99.90;;;;;;5125915;28;20035;-66
2022/06/11 10:50:13;;;;;;;18.58;4.30;;;20.40;99.90;;;;;;5125825;28;20094;-66
2022/06/11 10:52:42;;;;;;;20.13;3.47;;;20.40;99.90;;;;;;5126796;28;20051;-66
2022/06/11 10:55:13;;;;;;;12.23;3.00;;;20.40;99.90;;;;;;5108771;28;20039;-66
2022/06/11 10:57:39;;;;;;;11.65;3.45;;;20.40;99.90;;;;;;5107707;28;20051;-66
2022/06/11 11:00:30;;;;;;;14.15;3.33;;;20.50;99.90;;;;;;5107472;28;20133;-66
2022/06/11 11:03:05;;;;;;;14.90;3.70;;;20.70;99.90;;;;;;5107452;28;20102;-66
2022/06/11 11:05:45;;;;;;;13.68;3.63;;;20.90;99.90;;;;;;5106818;28;20059;-66
2022/06/11 11:08:12;;;;;;;14.13;3.75;;;21.00;99.90;;;;;;5107056;28;20067;-65
2022/06/11 11:10:50;;;;;;;13.15;3.05;;;21.10;99.90;;;;;;5108444;28;20090;-65
2022/06/11 11:13:35;;;;;;;12.75;3.70;;;21.00;99.90;;;;;;5085510;28;20040;-66
2022/06/11 11:16:07;;;;;;;10.90;3.85;;;21.00;99.90;;;;;;5124208;28;20567;-66
2022/06/11 11:18:54;;;;;;;14.63;3.55;;;20.80;99.90;;;;;;5112063;28;20054;-66
2022/06/11 11:21:48;;;;;;;15.73;3.50;;;20.80;99.90;;;;;;5105784;28;20071;-65
2022/06/11 11:24:17;;;;;;;14.02;4.10;;;21.00;99.90;;;;;;5105475;28;20048;-66
2022/06/11 11:27:00;;;;;;;11.20;3.43;;;21.00;99.90;;;;;;5106561;28;20082;-66
2022/06/11 11:29:34;;;;;;;15.45;3.50;;;20.90;99.90;;;;;;5103367;28;20783;-66
2022/06/11 11:32:06;;;;;;;13.00;3.33;;;20.90;99.90;;;;;;5107573;28;20081;-66
2022/06/11 11:34:48;;;;;;;13.93;3.63;;;20.90;99.90;;;;;;5123526;28;20445;-66
2022/06/11 11:37:14;;;;;;;15.73;3.70;;;20.90;99.90;;;;;;5103817;28;20061;-66
2022/06/11 11:39:52;;;;;;;12.55;3.92;;;21.00;99.90;;;;;;5124793;28;20099;-66
2022/06/11 11:42:37;;;;;;;15.80;3.83;;;21.20;99.90;;;;;;5102864;28;20610;-66
2022/06/11 11:45:22;;;;;;;15.18;3.60;;;21.40;99.90;;;;;;5106718;28;20127;-65
2022/06/11 11:47:50;;;;;;;14.77;3.42;;;21.30;99.90;;;;;;5100423;28;20043;-66
2022/06/11 11:50:29;;;;;;;11.93;3.70;;;21.30;99.90;;;;;;5106401;28;20060;-66
2022/06/11 11:53:02;;;;;;;12.07;3.40;;;21.40;99.90;;;;;;5123947;28;20113;-66
2022/06/11 11:55:31;;;;;;;17.13;3.78;;;21.40;99.90;;;;;;5088980;28;20043;-66
2022/06/11 11:58:15;;;;;;;12.68;3.55;;;21.50;99.90;;;;;;5122025;27;20064;-66
2022/06/11 12:00:54;;;;;;;12.95;3.88;;;21.50;99.90;;;;;;5105871;28;20055;-66
2022/06/11 12:03:38;;;;;;;12.63;3.90;;;21.30;99.90;;;;;;5118601;28;20050;-66
2022/06/11 12:06:05;;;;;;;15.27;3.72;;;21.30;99.90;;;;;;5106030;28;20046;-66
2022/06/11 12:08:36;;;;;;;11.88;3.47;;;21.50;99.90;;;;;;5106173;28;20071;-66
2022/06/11 12:11:04;;;;;;;12.48;3.85;;;21.20;99.90;;;;;;5120118;28;20069;-66
2022/06/11 12:13:58;;;;;;;12.90;3.53;;;21.30;99.90;;;;;;5106609;28;20048;-66
2022/06/11 12:16:50;;;;;;;15.70;4.05;;;21.40;99.90;;;;;;5123728;28;20048;-65
2022/06/11 12:19:35;;;;;;;14.70;3.60;;;21.40;99.90;;;;;;5122984;28;20050;-66
2022/06/11 12:22:16;;;;;;;13.48;3.80;;;21.40;99.90;;;;;;5124430;28;20048;-66
2022/06/11 12:24:45;;;;;;;14.07;3.50;;;21.30;99.90;;;;;;5125136;28;20036;-65
2022/06/11 12:27:39;;;;;;;12.35;3.60;;;21.40;99.90;;;;;;5123967;28;20047;-66
2022/06/11 12:30:27;;;;;;;10.70;3.15;;;21.50;99.90;;;;;;5100054;28;20094;-65
2022/06/11 12:32:53;;;;;;;12.27;3.45;;;21.60;99.90;;;;;;5106991;28;20053;-65
2022/06/11 12:35:35;;;;;;;12.18;3.33;;;21.80;99.90;;;;;;5106963;28;20111;-66
2022/06/11 12:38:29;;;;;;;18.38;3.70;;;21.90;99.90;;;;;;5102273;28;20048;-66
2022/06/11 12:41:14;;;;;;;12.65;3.28;;;22.00;99.90;;;;;;5105038;28;20125;-66
2022/06/11 12:43:48;;;;;;;12.93;3.25;;;22.10;99.90;;;;;;5110617;28;20048;-65
2022/06/11 12:46:29;;;;;;;11.68;3.35;;;22.20;99.90;;;;;;5110808;28;20117;-66
2022/06/11 12:49:13;;;;;;;13.45;3.92;;;22.30;99.90;;;;;;5107867;28;20059;-66
2022/06/11 12:51:57;;;;;;;12.73;3.33;;;22.20;99.90;;;;;;5128250;28;20419;-66
2022/06/11 12:54:34;;;;;;;11.90;3.75;;;22.20;99.90;;;;;;5109320;28;20052;-66
2022/06/11 12:57:23;;;;;;;16.13;3.85;;;22.30;99.90;;;;;;5103406;28;20093;-66
2022/06/11 13:00:28;;;;;;;11.20;3.33;;;22.50;99.90;;;;;;5109537;28;20047;-66
2022/06/11 13:03:19;;;;;;;13.35;3.60;;;22.40;99.90;;;;;;5129117;28;20085;-66
2022/06/11 13:05:58;;;;;;;12.80;3.13;;;22.30;99.90;;;;;;5128766;28;20043;-66
2022/06/11 13:08:52;;;;;;;12.25;3.65;;;22.40;99.90;;;;;;5126343;28;20071;-66